sensor_id;sensor_type;location;lat;lon;timestamp;temperature;humidity
21682;DHT22;11002;48.256;10.084;2022-12-28T00:01:59;16.50;28.30
21682;DHT22;11002;48.256;10.084;2022-12-28T00:04:26;16.50;28.30
21682;DHT22;11002;48.256;10.084;2022-12-28T00:06:53;16.50;28.30
21682;DHT22;11002;48.256;10.084;2022-12-28T00:09:21;16.50;28.20
21682;DHT22;11002;48.256;10.084;2022-12-28T00:11:48;16.40;28.20
21682;DHT22;11002;48.256;10.084;2022-12-28T00:14:15;16.50;28.20
21682;DHT22;11002;48.256;10.084;2022-12-28T00:16:43;16.40;28.20
21682;DHT22;11002;48.256;10.084;2022-12-28T00:19:14;16.50;28.20
21682;DHT22;11002;48.256;10.084;2022-12-28T00:21:42;16.50;28.20
21682;DHT22;11002;48.256;10.084;2022-12-28T00:24:16;16.50;28.20
21682;DHT22;11002;48.256;10.084;2022-12-28T00:26:44;16.50;28.20
21682;DHT22;11002;48.256;10.084;2022-12-28T00:29:11;16.50;28.20
21682;DHT22;11002;48.256;10.084;2022-12-28T00:31:39;16.50;28.20
21682;DHT22;11002;48.256;10.084;2022-12-28T00:34:06;16.50;28.20
21682;DHT22;11002;48.256;10.084;2022-12-28T00:36:35;16.40;28.20
21682;DHT22;11002;48.256;10.084;2022-12-28T00:39:03;16.40;28.20
21682;DHT22;11002;48.256;10.084;2022-12-28T00:41:33;16.50;28.20
21682;DHT22;11002;48.256;10.084;2022-12-28T00:44:00;16.50;28.10
21682;DHT22;11002;48.256;10.084;2022-12-28T00:46:27;16.50;28.20
21682;DHT22;11002;48.256;10.084;2022-12-28T00:48:55;16.50;28.10
21682;DHT22;11002;48.256;10.084;2022-12-28T00:51:23;16.50;28.10
21682;DHT22;11002;48.256;10.084;2022-12-28T00:53:51;16.50;28.20
21682;DHT22;11002;48.256;10.084;2022-12-28T00:56:20;16.50;28.10
21682;DHT22;11002;48.256;10.084;2022-12-28T00:58:49;16.50;28.10
21682;DHT22;11002;48.256;10.084;2022-12-28T01:01:17;16.50;28.10
21682;DHT22;11002;48.256;10.084;2022-12-28T01:03:45;16.50;28.10
21682;DHT22;11002;48.256;10.084;2022-12-28T01:06:17;16.40;28.10
21682;DHT22;11002;48.256;10.084;2022-12-28T01:08:45;16.50;28.10
21682;DHT22;11002;48.256;10.084;2022-12-28T01:11:17;16.40;28.00
21682;DHT22;11002;48.256;10.084;2022-12-28T01:13:46;16.50;28.10
21682;DHT22;11002;48.256;10.084;2022-12-28T01:16:16;16.50;28.00
21682;DHT22;11002;48.256;10.084;2022-12-28T01:18:44;16.50;28.00
21682;DHT22;11002;48.256;10.084;2022-12-28T01:21:13;16.50;28.10
21682;DHT22;11002;48.256;10.084;2022-12-28T01:23:42;16.50;28.10
21682;DHT22;11002;48.256;10.084;2022-12-28T01:26:09;16.50;28.10
21682;DHT22;11002;48.256;10.084;2022-12-28T01:28:40;16.50;28.00
21682;DHT22;11002;48.256;10.084;2022-12-28T01:31:09;16.50;28.00
21682;DHT22;11002;48.256;10.084;2022-12-28T01:33:37;16.50;28.00
21682;DHT22;11002;48.256;10.084;2022-12-28T01:36:06;16.50;28.00
21682;DHT22;11002;48.256;10.084;2022-12-28T01:38:33;16.50;28.00
21682;DHT22;11002;48.256;10.084;2022-12-28T01:41:02;16.50;28.00
21682;DHT22;11002;48.256;10.084;2022-12-28T01:43:40;16.50;28.00
21682;DHT22;11002;48.256;10.084;2022-12-28T01:46:09;16.50;28.00
21682;DHT22;11002;48.256;10.084;2022-12-28T01:48:44;16.50;28.00
21682;DHT22;11002;48.256;10.084;2022-12-28T01:51:12;16.50;28.00
21682;DHT22;11002;48.256;10.084;2022-12-28T01:53:39;16.50;28.00
21682;DHT22;11002;48.256;10.084;2022-12-28T01:56:07;16.50;28.00
21682;DHT22;11002;48.256;10.084;2022-12-28T01:58:35;16.50;28.00
21682;DHT22;11002;48.256;10.084;2022-12-28T02:01:04;16.50;27.90
21682;DHT22;11002;48.256;10.084;2022-12-28T02:03:33;16.50;27.90
21682;DHT22;11002;48.256;10.084;2022-12-28T02:06:04;16.50;28.00
21682;DHT22;11002;48.256;10.084;2022-12-28T02:08:41;16.50;27.90
21682;DHT22;11002;48.256;10.084;2022-12-28T02:11:13;16.50;28.50
21682;DHT22;11002;48.256;10.084;2022-12-28T02:13:42;16.50;28.00
21682;DHT22;11002;48.256;10.084;2022-12-28T02:16:11;16.50;28.00
21682;DHT22;11002;48.256;10.084;2022-12-28T02:18:43;16.50;28.00
21682;DHT22;11002;48.256;10.084;2022-12-28T02:21:23;16.40;27.90
21682;DHT22;11002;48.256;10.084;2022-12-28T02:27:01;16.50;27.90
21682;DHT22;11002;48.256;10.084;2022-12-28T02:29:56;16.50;27.90
21682;DHT22;11002;48.256;10.084;2022-12-28T02:32:39;16.50;27.80
21682;DHT22;11002;48.256;10.084;2022-12-28T02:35:14;16.50;27.90
21682;DHT22;11002;48.256;10.084;2022-12-28T02:37:46;16.50;27.90
21682;DHT22;11002;48.256;10.084;2022-12-28T02:40:16;16.50;27.90
21682;DHT22;11002;48.256;10.084;2022-12-28T02:42:45;16.50;27.90
21682;DHT22;11002;48.256;10.084;2022-12-28T02:45:42;16.50;27.90
21682;DHT22;11002;48.256;10.084;2022-12-28T02:48:36;16.50;27.90
21682;DHT22;11002;48.256;10.084;2022-12-28T02:51:45;16.50;27.80
21682;DHT22;11002;48.256;10.084;2022-12-28T02:54:42;16.50;27.90
21682;DHT22;11002;48.256;10.084;2022-12-28T02:57:44;16.50;27.90
21682;DHT22;11002;48.256;10.084;2022-12-28T03:00:18;16.50;27.90
21682;DHT22;11002;48.256;10.084;2022-12-28T03:02:59;16.50;27.90
21682;DHT22;11002;48.256;10.084;2022-12-28T03:05:34;16.50;27.80
21682;DHT22;11002;48.256;10.084;2022-12-28T03:08:26;16.50;27.80
21682;DHT22;11002;48.256;10.084;2022-12-28T03:11:02;16.40;27.80
21682;DHT22;11002;48.256;10.084;2022-12-28T03:13:33;16.50;27.80
21682;DHT22;11002;48.256;10.084;2022-12-28T03:16:13;16.50;27.80
21682;DHT22;11002;48.256;10.084;2022-12-28T03:18:48;16.40;27.80
21682;DHT22;11002;48.256;10.084;2022-12-28T03:21:35;16.40;27.80
21682;DHT22;11002;48.256;10.084;2022-12-28T03:24:21;16.50;27.80
21682;DHT22;11002;48.256;10.084;2022-12-28T03:27:09;16.50;27.80
21682;DHT22;11002;48.256;10.084;2022-12-28T03:30:01;16.50;27.80
21682;DHT22;11002;48.256;10.084;2022-12-28T03:32:48;16.50;27.80
21682;DHT22;11002;48.256;10.084;2022-12-28T03:35:19;16.50;27.80
21682;DHT22;11002;48.256;10.084;2022-12-28T03:37:53;16.50;27.80
21682;DHT22;11002;48.256;10.084;2022-12-28T03:40:30;16.50;27.80
21682;DHT22;11002;48.256;10.084;2022-12-28T03:43:03;16.50;27.80
21682;DHT22;11002;48.256;10.084;2022-12-28T03:45:55;16.50;27.80
21682;DHT22;11002;48.256;10.084;2022-12-28T03:48:24;16.50;27.80
21682;DHT22;11002;48.256;10.084;2022-12-28T03:50:53;16.50;27.80
21682;DHT22;11002;48.256;10.084;2022-12-28T03:53:26;16.50;27.80
21682;DHT22;11002;48.256;10.084;2022-12-28T03:56:08;16.50;27.80
21682;DHT22;11002;48.256;10.084;2022-12-28T03:58:36;16.50;27.80
21682;DHT22;11002;48.256;10.084;2022-12-28T04:01:05;16.50;28.00
21682;DHT22;11002;48.256;10.084;2022-12-28T04:03:33;16.50;27.80
21682;DHT22;11002;48.256;10.084;2022-12-28T04:06:02;16.50;27.80
21682;DHT22;11002;48.256;10.084;2022-12-28T04:08:30;16.50;27.70
21682;DHT22;11002;48.256;10.084;2022-12-28T04:10:58;16.50;27.80
21682;DHT22;11002;48.256;10.084;2022-12-28T04:13:28;16.50;27.70
21682;DHT22;11002;48.256;10.084;2022-12-28T04:16:09;16.50;27.70
21682;DHT22;11002;48.256;10.084;2022-12-28T04:18:39;16.50;27.70
21682;DHT22;11002;48.256;10.084;2022-12-28T04:21:08;16.50;27.70
21682;DHT22;11002;48.256;10.084;2022-12-28T04:23:38;16.50;27.70
21682;DHT22;11002;48.256;10.084;2022-12-28T04:26:17;16.50;27.70
21682;DHT22;11002;48.256;10.084;2022-12-28T04:28:47;16.50;27.70
21682;DHT22;11002;48.256;10.084;2022-12-28T04:31:34;16.50;27.70
21682;DHT22;11002;48.256;10.084;2022-12-28T04:34:05;16.50;27.70
21682;DHT22;11002;48.256;10.084;2022-12-28T04:36:39;16.50;27.70
21682;DHT22;11002;48.256;10.084;2022-12-28T04:39:11;16.50;27.70
21682;DHT22;11002;48.256;10.084;2022-12-28T04:41:38;16.50;27.60
21682;DHT22;11002;48.256;10.084;2022-12-28T04:44:06;16.50;27.60
21682;DHT22;11002;48.256;10.084;2022-12-28T04:46:33;16.50;27.60
21682;DHT22;11002;48.256;10.084;2022-12-28T04:49:01;16.50;27.60
21682;DHT22;11002;48.256;10.084;2022-12-28T04:51:29;16.50;27.60
21682;DHT22;11002;48.256;10.084;2022-12-28T04:53:57;16.50;27.60
21682;DHT22;11002;48.256;10.084;2022-12-28T04:56:25;16.50;27.60
21682;DHT22;11002;48.256;10.084;2022-12-28T04:58:54;16.50;27.60
21682;DHT22;11002;48.256;10.084;2022-12-28T05:01:22;16.50;27.60
21682;DHT22;11002;48.256;10.084;2022-12-28T05:03:51;16.50;27.60
21682;DHT22;11002;48.256;10.084;2022-12-28T05:06:20;16.50;27.70
21682;DHT22;11002;48.256;10.084;2022-12-28T05:08:48;16.50;27.60
21682;DHT22;11002;48.256;10.084;2022-12-28T05:11:19;16.50;27.60
21682;DHT22;11002;48.256;10.084;2022-12-28T05:13:47;16.50;27.60
21682;DHT22;11002;48.256;10.084;2022-12-28T05:16:16;16.50;27.60
21682;DHT22;11002;48.256;10.084;2022-12-28T05:18:43;16.50;27.60
21682;DHT22;11002;48.256;10.084;2022-12-28T05:21:13;16.50;27.60
21682;DHT22;11002;48.256;10.084;2022-12-28T05:23:41;16.50;27.60
21682;DHT22;11002;48.256;10.084;2022-12-28T05:26:20;16.50;27.60
21682;DHT22;11002;48.256;10.084;2022-12-28T05:28:48;16.50;27.60
21682;DHT22;11002;48.256;10.084;2022-12-28T05:31:17;16.50;27.60
21682;DHT22;11002;48.256;10.084;2022-12-28T05:33:45;16.50;27.60
21682;DHT22;11002;48.256;10.084;2022-12-28T05:36:15;16.50;27.60
21682;DHT22;11002;48.256;10.084;2022-12-28T05:38:43;16.50;27.60
21682;DHT22;11002;48.256;10.084;2022-12-28T05:41:13;16.50;27.60
21682;DHT22;11002;48.256;10.084;2022-12-28T05:43:43;16.50;27.60
21682;DHT22;11002;48.256;10.084;2022-12-28T05:46:12;16.50;27.60
21682;DHT22;11002;48.256;10.084;2022-12-28T05:48:40;16.50;27.60
21682;DHT22;11002;48.256;10.084;2022-12-28T05:51:09;16.50;27.50
21682;DHT22;11002;48.256;10.084;2022-12-28T05:53:37;16.50;27.50
21682;DHT22;11002;48.256;10.084;2022-12-28T05:56:07;16.50;27.50
21682;DHT22;11002;48.256;10.084;2022-12-28T05:58:36;16.50;27.50
21682;DHT22;11002;48.256;10.084;2022-12-28T06:01:07;16.50;27.50
21682;DHT22;11002;48.256;10.084;2022-12-28T06:03:35;16.50;27.50
21682;DHT22;11002;48.256;10.084;2022-12-28T06:06:05;16.50;28.00
21682;DHT22;11002;48.256;10.084;2022-12-28T06:08:33;16.50;27.50
21682;DHT22;11002;48.256;10.084;2022-12-28T06:11:01;16.50;27.50
21682;DHT22;11002;48.256;10.084;2022-12-28T06:13:29;16.50;27.50
21682;DHT22;11002;48.256;10.084;2022-12-28T06:15:56;16.50;27.50
21682;DHT22;11002;48.256;10.084;2022-12-28T06:18:27;16.50;27.50
21682;DHT22;11002;48.256;10.084;2022-12-28T06:21:01;16.50;27.50
21682;DHT22;11002;48.256;10.084;2022-12-28T06:23:28;16.50;27.50
21682;DHT22;11002;48.256;10.084;2022-12-28T06:25:57;16.50;27.50
21682;DHT22;11002;48.256;10.084;2022-12-28T06:28:25;16.50;27.50
21682;DHT22;11002;48.256;10.084;2022-12-28T06:31:00;16.50;27.50
21682;DHT22;11002;48.256;10.084;2022-12-28T06:33:29;16.50;27.50
21682;DHT22;11002;48.256;10.084;2022-12-28T06:35:56;16.50;27.50
21682;DHT22;11002;48.256;10.084;2022-12-28T06:38:24;16.50;27.60
21682;DHT22;11002;48.256;10.084;2022-12-28T06:40:52;16.50;27.60
21682;DHT22;11002;48.256;10.084;2022-12-28T06:43:19;16.50;28.10
21682;DHT22;11002;48.256;10.084;2022-12-28T06:45:56;16.50;27.60
21682;DHT22;11002;48.256;10.084;2022-12-28T06:48:24;16.50;27.60
21682;DHT22;11002;48.256;10.084;2022-12-28T06:50:57;16.50;27.50
21682;DHT22;11002;48.256;10.084;2022-12-28T06:53:27;16.50;27.50
21682;DHT22;11002;48.256;10.084;2022-12-28T06:55:56;16.50;27.50
21682;DHT22;11002;48.256;10.084;2022-12-28T06:58:24;16.50;27.50
21682;DHT22;11002;48.256;10.084;2022-12-28T07:00:51;16.50;27.50
21682;DHT22;11002;48.256;10.084;2022-12-28T07:03:19;16.50;27.50
21682;DHT22;11002;48.256;10.084;2022-12-28T07:05:47;16.50;27.50
21682;DHT22;11002;48.256;10.084;2022-12-28T07:08:17;16.50;27.50
21682;DHT22;11002;48.256;10.084;2022-12-28T07:10:44;16.50;27.40
21682;DHT22;11002;48.256;10.084;2022-12-28T07:13:12;16.50;27.40
21682;DHT22;11002;48.256;10.084;2022-12-28T07:15:39;16.50;27.40
21682;DHT22;11002;48.256;10.084;2022-12-28T07:18:06;16.50;27.50
21682;DHT22;11002;48.256;10.084;2022-12-28T07:20:34;16.50;27.50
21682;DHT22;11002;48.256;10.084;2022-12-28T07:23:01;16.50;27.50
21682;DHT22;11002;48.256;10.084;2022-12-28T07:25:30;16.50;27.50
21682;DHT22;11002;48.256;10.084;2022-12-28T07:27:57;16.50;27.50
21682;DHT22;11002;48.256;10.084;2022-12-28T07:30:25;16.50;27.50
21682;DHT22;11002;48.256;10.084;2022-12-28T07:32:52;16.50;27.50
21682;DHT22;11002;48.256;10.084;2022-12-28T07:35:19;16.50;27.50
21682;DHT22;11002;48.256;10.084;2022-12-28T07:37:47;16.50;27.50
21682;DHT22;11002;48.256;10.084;2022-12-28T07:40:14;16.50;27.50
21682;DHT22;11002;48.256;10.084;2022-12-28T07:42:43;16.50;27.50
21682;DHT22;11002;48.256;10.084;2022-12-28T07:45:10;16.50;27.50
21682;DHT22;11002;48.256;10.084;2022-12-28T07:47:38;16.50;27.50
21682;DHT22;11002;48.256;10.084;2022-12-28T07:50:06;16.50;27.50
21682;DHT22;11002;48.256;10.084;2022-12-28T07:52:35;16.50;27.50
21682;DHT22;11002;48.256;10.084;2022-12-28T07:55:03;16.50;27.50
21682;DHT22;11002;48.256;10.084;2022-12-28T07:57:30;16.50;27.50
21682;DHT22;11002;48.256;10.084;2022-12-28T07:59:59;16.50;27.50
21682;DHT22;11002;48.256;10.084;2022-12-28T08:02:26;16.50;27.50
21682;DHT22;11002;48.256;10.084;2022-12-28T08:04:53;16.50;27.50
21682;DHT22;11002;48.256;10.084;2022-12-28T08:07:21;16.50;27.50
21682;DHT22;11002;48.256;10.084;2022-12-28T08:09:48;16.50;27.50
21682;DHT22;11002;48.256;10.084;2022-12-28T08:12:15;16.50;27.50
21682;DHT22;11002;48.256;10.084;2022-12-28T08:14:43;16.50;27.50
21682;DHT22;11002;48.256;10.084;2022-12-28T08:17:11;16.50;27.50
21682;DHT22;11002;48.256;10.084;2022-12-28T08:19:39;16.50;27.50
21682;DHT22;11002;48.256;10.084;2022-12-28T08:22:06;16.50;27.50
21682;DHT22;11002;48.256;10.084;2022-12-28T08:24:33;16.50;27.50
21682;DHT22;11002;48.256;10.084;2022-12-28T08:27:01;16.50;27.40
21682;DHT22;11002;48.256;10.084;2022-12-28T08:29:29;16.50;27.40
21682;DHT22;11002;48.256;10.084;2022-12-28T08:31:56;16.50;27.40
21682;DHT22;11002;48.256;10.084;2022-12-28T08:34:25;16.50;27.50
21682;DHT22;11002;48.256;10.084;2022-12-28T08:36:52;16.50;27.50
21682;DHT22;11002;48.256;10.084;2022-12-28T08:39:20;16.50;27.40
21682;DHT22;11002;48.256;10.084;2022-12-28T08:41:47;16.50;27.50
21682;DHT22;11002;48.256;10.084;2022-12-28T08:44:14;16.50;27.50
21682;DHT22;11002;48.256;10.084;2022-12-28T08:46:42;16.50;28.00
21682;DHT22;11002;48.256;10.084;2022-12-28T08:49:09;16.50;27.50
21682;DHT22;11002;48.256;10.084;2022-12-28T08:51:39;16.50;27.50
21682;DHT22;11002;48.256;10.084;2022-12-28T08:54:08;16.50;27.50
21682;DHT22;11002;48.256;10.084;2022-12-28T08:56:38;16.50;27.40
21682;DHT22;11002;48.256;10.084;2022-12-28T08:59:05;16.50;27.40
21682;DHT22;11002;48.256;10.084;2022-12-28T09:01:34;16.50;27.40
21682;DHT22;11002;48.256;10.084;2022-12-28T09:04:02;16.60;27.50
21682;DHT22;11002;48.256;10.084;2022-12-28T09:06:33;16.60;27.50
21682;DHT22;11002;48.256;10.084;2022-12-28T09:09:04;16.50;27.40
21682;DHT22;11002;48.256;10.084;2022-12-28T09:11:32;16.50;27.40
21682;DHT22;11002;48.256;10.084;2022-12-28T09:14:00;16.60;27.60
21682;DHT22;11002;48.256;10.084;2022-12-28T09:16:29;16.60;27.50
21682;DHT22;11002;48.256;10.084;2022-12-28T09:18:58;16.50;27.50
21682;DHT22;11002;48.256;10.084;2022-12-28T09:21:27;16.60;27.60
21682;DHT22;11002;48.256;10.084;2022-12-28T09:23:55;16.60;27.60
21682;DHT22;11002;48.256;10.084;2022-12-28T09:26:25;16.50;27.50
21682;DHT22;11002;48.256;10.084;2022-12-28T09:28:55;16.60;27.60
21682;DHT22;11002;48.256;10.084;2022-12-28T09:31:25;16.50;27.50
21682;DHT22;11002;48.256;10.084;2022-12-28T09:33:53;16.50;27.50
21682;DHT22;11002;48.256;10.084;2022-12-28T09:36:28;16.60;27.60
21682;DHT22;11002;48.256;10.084;2022-12-28T09:38:57;16.60;27.70
21682;DHT22;11002;48.256;10.084;2022-12-28T09:41:30;16.50;27.60
21682;DHT22;11002;48.256;10.084;2022-12-28T09:44:16;16.50;27.60
21682;DHT22;11002;48.256;10.084;2022-12-28T09:46:49;16.50;27.60
21682;DHT22;11002;48.256;10.084;2022-12-28T09:49:20;16.50;27.60
21682;DHT22;11002;48.256;10.084;2022-12-28T09:51:53;16.50;27.60
21682;DHT22;11002;48.256;10.084;2022-12-28T09:54:23;16.50;27.70
21682;DHT22;11002;48.256;10.084;2022-12-28T09:56:52;16.50;27.70
21682;DHT22;11002;48.256;10.084;2022-12-28T09:59:22;16.50;27.70
21682;DHT22;11002;48.256;10.084;2022-12-28T10:01:54;16.50;27.70
21682;DHT22;11002;48.256;10.084;2022-12-28T10:04:23;16.50;27.60
21682;DHT22;11002;48.256;10.084;2022-12-28T10:06:51;16.50;27.60
21682;DHT22;11002;48.256;10.084;2022-12-28T10:09:23;16.50;27.70
21682;DHT22;11002;48.256;10.084;2022-12-28T10:11:53;16.50;27.70
21682;DHT22;11002;48.256;10.084;2022-12-28T10:14:24;16.50;27.70
21682;DHT22;11002;48.256;10.084;2022-12-28T10:16:53;16.50;27.70
21682;DHT22;11002;48.256;10.084;2022-12-28T10:19:23;16.50;27.70
21682;DHT22;11002;48.256;10.084;2022-12-28T10:21:56;16.50;27.70
21682;DHT22;11002;48.256;10.084;2022-12-28T10:24:25;16.50;27.70
21682;DHT22;11002;48.256;10.084;2022-12-28T10:26:56;16.50;27.70
21682;DHT22;11002;48.256;10.084;2022-12-28T10:29:25;16.50;27.70
21682;DHT22;11002;48.256;10.084;2022-12-28T10:31:59;16.50;27.70
21682;DHT22;11002;48.256;10.084;2022-12-28T10:34:28;16.50;27.70
21682;DHT22;11002;48.256;10.084;2022-12-28T10:37:03;16.50;27.70
21682;DHT22;11002;48.256;10.084;2022-12-28T10:39:32;16.50;27.70
21682;DHT22;11002;48.256;10.084;2022-12-28T10:42:01;16.50;27.60
21682;DHT22;11002;48.256;10.084;2022-12-28T10:44:31;16.50;27.70
21682;DHT22;11002;48.256;10.084;2022-12-28T10:47:01;16.50;27.70
21682;DHT22;11002;48.256;10.084;2022-12-28T10:49:32;16.50;27.60
21682;DHT22;11002;48.256;10.084;2022-12-28T10:52:06;16.50;27.60
21682;DHT22;11002;48.256;10.084;2022-12-28T10:54:35;16.50;27.60
21682;DHT22;11002;48.256;10.084;2022-12-28T10:57:04;16.50;27.60
21682;DHT22;11002;48.256;10.084;2022-12-28T10:59:31;16.50;27.60
21682;DHT22;11002;48.256;10.084;2022-12-28T11:02:25;16.50;27.60
21682;DHT22;11002;48.256;10.084;2022-12-28T11:04:55;16.50;27.60
21682;DHT22;11002;48.256;10.084;2022-12-28T11:07:30;16.50;27.60
21682;DHT22;11002;48.256;10.084;2022-12-28T11:10:24;16.50;27.60
21682;DHT22;11002;48.256;10.084;2022-12-28T11:12:55;16.50;27.60
21682;DHT22;11002;48.256;10.084;2022-12-28T11:15:27;16.50;27.70
21682;DHT22;11002;48.256;10.084;2022-12-28T11:17:56;16.50;27.70
21682;DHT22;11002;48.256;10.084;2022-12-28T11:20:30;16.50;27.60
21682;DHT22;11002;48.256;10.084;2022-12-28T11:22:58;16.50;27.60
21682;DHT22;11002;48.256;10.084;2022-12-28T11:25:29;16.50;27.60
21682;DHT22;11002;48.256;10.084;2022-12-28T11:27:59;16.50;27.70
21682;DHT22;11002;48.256;10.084;2022-12-28T11:30:26;16.50;27.70
21682;DHT22;11002;48.256;10.084;2022-12-28T11:32:58;16.50;27.70
21682;DHT22;11002;48.256;10.084;2022-12-28T11:35:28;16.50;27.70
21682;DHT22;11002;48.256;10.084;2022-12-28T11:37:59;16.50;27.60
21682;DHT22;11002;48.256;10.084;2022-12-28T11:40:50;16.50;27.60
21682;DHT22;11002;48.256;10.084;2022-12-28T11:43:50;16.50;27.60
21682;DHT22;11002;48.256;10.084;2022-12-28T11:46:38;16.50;27.60
21682;DHT22;11002;48.256;10.084;2022-12-28T11:49:27;16.50;27.60
21682;DHT22;11002;48.256;10.084;2022-12-28T11:52:33;16.50;27.60
21682;DHT22;11002;48.256;10.084;2022-12-28T11:55:39;16.50;27.60
21682;DHT22;11002;48.256;10.084;2022-12-28T11:58:32;16.50;27.50
21682;DHT22;11002;48.256;10.084;2022-12-28T12:01:02;16.50;27.60
21682;DHT22;11002;48.256;10.084;2022-12-28T12:04:06;16.50;27.60
21682;DHT22;11002;48.256;10.084;2022-12-28T12:09:47;16.50;27.60
21682;DHT22;11002;48.256;10.084;2022-12-28T12:12:35;16.50;27.70
21682;DHT22;11002;48.256;10.084;2022-12-28T12:15:10;16.50;27.60
21682;DHT22;11002;48.256;10.084;2022-12-28T12:17:44;16.50;27.60
21682;DHT22;11002;48.256;10.084;2022-12-28T12:20:24;16.50;27.60
21682;DHT22;11002;48.256;10.084;2022-12-28T12:22:56;16.50;27.60
21682;DHT22;11002;48.256;10.084;2022-12-28T12:25:34;16.50;27.60
21682;DHT22;11002;48.256;10.084;2022-12-28T12:28:07;16.50;27.60
21682;DHT22;11002;48.256;10.084;2022-12-28T12:30:37;16.50;27.60
21682;DHT22;11002;48.256;10.084;2022-12-28T12:33:10;16.50;27.60
21682;DHT22;11002;48.256;10.084;2022-12-28T12:35:49;16.50;27.60
21682;DHT22;11002;48.256;10.084;2022-12-28T12:38:35;16.50;27.60
21682;DHT22;11002;48.256;10.084;2022-12-28T12:41:20;16.50;27.60
21682;DHT22;11002;48.256;10.084;2022-12-28T12:44:04;16.50;27.60
21682;DHT22;11002;48.256;10.084;2022-12-28T12:47:06;16.50;27.60
21682;DHT22;11002;48.256;10.084;2022-12-28T12:49:58;16.50;27.60
21682;DHT22;11002;48.256;10.084;2022-12-28T12:52:40;16.50;27.60
21682;DHT22;11002;48.256;10.084;2022-12-28T12:55:18;16.50;27.60
21682;DHT22;11002;48.256;10.084;2022-12-28T12:57:54;16.50;27.60
21682;DHT22;11002;48.256;10.084;2022-12-28T13:00:30;16.50;27.50
21682;DHT22;11002;48.256;10.084;2022-12-28T13:03:22;16.50;27.40
21682;DHT22;11002;48.256;10.084;2022-12-28T13:05:56;16.50;27.60
21682;DHT22;11002;48.256;10.084;2022-12-28T13:08:26;16.50;27.60
21682;DHT22;11002;48.256;10.084;2022-12-28T13:10:56;16.50;27.60
21682;DHT22;11002;48.256;10.084;2022-12-28T13:13:28;16.50;27.60
21682;DHT22;11002;48.256;10.084;2022-12-28T13:16:01;16.50;27.50
21682;DHT22;11002;48.256;10.084;2022-12-28T13:18:29;16.50;27.50
21682;DHT22;11002;48.256;10.084;2022-12-28T13:21:00;16.50;27.50
21682;DHT22;11002;48.256;10.084;2022-12-28T13:23:29;16.50;27.50
21682;DHT22;11002;48.256;10.084;2022-12-28T13:25:58;16.50;27.40
21682;DHT22;11002;48.256;10.084;2022-12-28T13:28:28;16.50;27.40
21682;DHT22;11002;48.256;10.084;2022-12-28T13:31:07;16.50;27.40
21682;DHT22;11002;48.256;10.084;2022-12-28T13:33:35;16.50;27.40
21682;DHT22;11002;48.256;10.084;2022-12-28T13:36:11;16.50;27.40
21682;DHT22;11002;48.256;10.084;2022-12-28T13:38:39;16.50;27.40
21682;DHT22;11002;48.256;10.084;2022-12-28T13:41:18;16.50;27.40
21682;DHT22;11002;48.256;10.084;2022-12-28T13:46:54;16.50;27.10
21682;DHT22;11002;48.256;10.084;2022-12-28T13:49:24;16.50;27.30
21682;DHT22;11002;48.256;10.084;2022-12-28T13:51:55;16.50;27.30
21682;DHT22;11002;48.256;10.084;2022-12-28T13:54:23;16.60;27.50
21682;DHT22;11002;48.256;10.084;2022-12-28T13:56:52;16.50;27.10
21682;DHT22;11002;48.256;10.084;2022-12-28T13:59:22;16.60;27.30
21682;DHT22;11002;48.256;10.084;2022-12-28T14:01:50;16.50;27.20
21682;DHT22;11002;48.256;10.084;2022-12-28T14:04:22;16.60;27.40
21682;DHT22;11002;48.256;10.084;2022-12-28T14:06:50;16.60;27.50
21682;DHT22;11002;48.256;10.084;2022-12-28T14:09:19;16.50;27.60
21682;DHT22;11002;48.256;10.084;2022-12-28T14:11:48;16.50;27.60
21682;DHT22;11002;48.256;10.084;2022-12-28T14:14:16;16.50;27.60
21682;DHT22;11002;48.256;10.084;2022-12-28T14:16:44;16.50;27.60
21682;DHT22;11002;48.256;10.084;2022-12-28T14:19:12;16.50;27.50
21682;DHT22;11002;48.256;10.084;2022-12-28T14:21:41;16.50;27.50
21682;DHT22;11002;48.256;10.084;2022-12-28T14:24:10;16.50;27.40
21682;DHT22;11002;48.256;10.084;2022-12-28T14:26:44;16.50;27.50
21682;DHT22;11002;48.256;10.084;2022-12-28T14:29:14;16.50;27.70
21682;DHT22;11002;48.256;10.084;2022-12-28T14:31:44;16.50;27.80
21682;DHT22;11002;48.256;10.084;2022-12-28T14:34:21;16.50;27.70
21682;DHT22;11002;48.256;10.084;2022-12-28T14:36:52;16.50;27.70
21682;DHT22;11002;48.256;10.084;2022-12-28T14:39:31;16.50;27.60
21682;DHT22;11002;48.256;10.084;2022-12-28T14:42:02;16.50;27.50
21682;DHT22;11002;48.256;10.084;2022-12-28T14:44:32;16.50;27.60
21682;DHT22;11002;48.256;10.084;2022-12-28T14:46:59;16.50;27.60
21682;DHT22;11002;48.256;10.084;2022-12-28T14:49:34;16.50;27.70
21682;DHT22;11002;48.256;10.084;2022-12-28T14:52:40;16.50;27.70
21682;DHT22;11002;48.256;10.084;2022-12-28T14:55:26;16.50;27.70
21682;DHT22;11002;48.256;10.084;2022-12-28T14:58:01;16.50;27.60
21682;DHT22;11002;48.256;10.084;2022-12-28T15:00:31;16.50;27.50
21682;DHT22;11002;48.256;10.084;2022-12-28T15:03:16;16.50;27.50
21682;DHT22;11002;48.256;10.084;2022-12-28T15:05:47;16.50;27.30
21682;DHT22;11002;48.256;10.084;2022-12-28T15:08:15;16.50;27.40
21682;DHT22;11002;48.256;10.084;2022-12-28T15:10:46;16.50;27.40
21682;DHT22;11002;48.256;10.084;2022-12-28T15:13:16;16.50;27.50
21682;DHT22;11002;48.256;10.084;2022-12-28T15:15:51;16.50;27.50
21682;DHT22;11002;48.256;10.084;2022-12-28T15:18:20;16.50;27.50
21682;DHT22;11002;48.256;10.084;2022-12-28T15:20:49;16.50;27.40
21682;DHT22;11002;48.256;10.084;2022-12-28T15:23:16;16.50;27.20
21682;DHT22;11002;48.256;10.084;2022-12-28T15:25:44;16.50;27.30
21682;DHT22;11002;48.256;10.084;2022-12-28T15:28:11;16.50;27.40
21682;DHT22;11002;48.256;10.084;2022-12-28T15:30:40;16.50;27.50
21682;DHT22;11002;48.256;10.084;2022-12-28T15:33:08;16.50;27.50
21682;DHT22;11002;48.256;10.084;2022-12-28T15:35:35;16.50;27.40
21682;DHT22;11002;48.256;10.084;2022-12-28T15:38:03;16.50;27.50
21682;DHT22;11002;48.256;10.084;2022-12-28T15:40:30;16.50;27.40
21682;DHT22;11002;48.256;10.084;2022-12-28T15:42:58;16.50;27.40
21682;DHT22;11002;48.256;10.084;2022-12-28T15:45:25;16.50;27.40
21682;DHT22;11002;48.256;10.084;2022-12-28T15:47:54;16.50;27.40
21682;DHT22;11002;48.256;10.084;2022-12-28T15:50:22;16.50;27.40
21682;DHT22;11002;48.256;10.084;2022-12-28T15:52:51;16.50;27.20
21682;DHT22;11002;48.256;10.084;2022-12-28T15:55:18;16.50;27.00